Time;durP1;ratioP1;P1;durP2;ratioP2;P2;SDS_P1;SDS_P2;PMS_P1;PMS_P2;Temp;Humidity;BMP_temperature;BMP_pressure;BME280_temperature;BME280_humidity;BME280_pressure;Samples;Min_cycle;Max_cycle;Signal;HPM_P1;HPM_P2
2022/04/03 00:00:06;;;;;;;0.80;0.80;;;-2.50;99.90;;;;;;5117374;28;20069;-72
2022/04/03 00:02:32;;;;;;;1.60;1.40;;;-2.50;99.90;;;;;;5117065;28;20059;-72
2022/04/03 00:05:00;;;;;;;1.77;1.33;;;-2.50;99.90;;;;;;5116982;28;20468;-71
2022/04/03 00:07:27;;;;;;;0.63;0.63;;;-2.60;99.90;;;;;;5117161;28;20055;-72
2022/04/03 00:09:54;;;;;;;10.17;1.17;;;-2.70;99.90;;;;;;5117119;28;20078;-72
2022/04/03 00:12:20;;;;;;;1.13;0.63;;;-2.70;99.90;;;;;;5117365;28;20048;-72
2022/04/03 00:14:47;;;;;;;0.63;0.63;;;-2.70;99.90;;;;;;5117105;28;20082;-72
2022/04/03 00:17:14;;;;;;;1.10;1.10;;;-2.70;99.90;;;;;;5117061;28;20075;-72
2022/04/03 00:19:40;;;;;;;0.90;0.83;;;-2.80;99.90;;;;;;5117144;28;20044;-72
2022/04/03 00:22:08;;;;;;;1.17;1.17;;;-2.80;99.90;;;;;;5116917;28;20112;-72
2022/04/03 00:24:35;;;;;;;1.67;0.60;;;-2.80;99.90;;;;;;5112169;28;20076;-72
2022/04/03 00:27:01;;;;;;;1.27;1.17;;;-2.80;99.90;;;;;;5101556;28;20493;-72
2022/04/03 00:29:28;;;;;;;1.27;1.03;;;-2.70;99.90;;;;;;5116554;28;20494;-72
2022/04/03 00:31:55;;;;;;;2.00;1.80;;;-2.70;99.90;;;;;;5116505;28;20516;-72
2022/04/03 00:34:22;;;;;;;0.80;0.80;;;-2.70;99.90;;;;;;5100838;28;20071;-71
2022/04/03 00:36:48;;;;;;;1.50;1.47;;;-2.70;99.90;;;;;;5096102;28;20079;-71
2022/04/03 00:39:16;;;;;;;1.90;1.23;;;-2.70;99.90;;;;;;5105396;28;20075;-72
2022/04/03 00:41:43;;;;;;;1.03;1.03;;;-2.70;99.90;;;;;;5114446;28;20590;-72
2022/04/03 00:44:11;;;;;;;1.53;1.33;;;-2.70;99.90;;;;;;5104707;28;20490;-71
2022/04/03 00:46:38;;;;;;;1.20;1.10;;;-2.70;99.90;;;;;;5116662;28;20474;-72
2022/04/03 00:49:05;;;;;;;3.33;1.90;;;-2.70;99.90;;;;;;5102161;28;20083;-72
2022/04/03 00:51:32;;;;;;;3.37;1.50;;;-2.80;99.90;;;;;;5110759;28;20134;-72
2022/04/03 00:54:02;;;;;;;0.40;0.40;;;-2.80;99.90;;;;;;5095899;28;20051;-71
2022/04/03 00:56:31;;;;;;;0.87;0.87;;;-2.80;99.90;;;;;;5095809;28;20059;-72
2022/04/03 00:58:58;;;;;;;2.43;0.80;;;-2.80;99.90;;;;;;5095955;28;20140;-72
2022/04/03 01:01:25;;;;;;;2.33;2.03;;;-2.80;99.90;;;;;;5111526;28;20130;-71
2022/04/03 01:03:52;;;;;;;1.50;1.40;;;-2.90;99.90;;;;;;5115584;28;20117;-72
2022/04/03 01:06:18;;;;;;;0.77;0.77;;;-2.90;99.90;;;;;;5113334;28;20126;-72
2022/04/03 01:08:45;;;;;;;2.87;1.10;;;-3.00;99.90;;;;;;5115483;28;20067;-73
2022/04/03 01:11:13;;;;;;;1.20;1.00;;;-3.00;99.90;;;;;;5116347;28;20048;-72
2022/04/03 01:13:47;;;;;;;1.10;1.10;;;-3.00;99.90;;;;;;5115882;28;20055;-72
2022/04/03 01:16:14;;;;;;;1.27;1.03;;;-3.10;99.90;;;;;;5102030;28;20375;-72
2022/04/03 01:18:41;;;;;;;1.47;1.37;;;-3.10;99.90;;;;;;5115925;28;20054;-71
2022/04/03 01:21:08;;;;;;;0.50;0.50;;;-3.00;99.90;;;;;;5115654;28;20510;-71
2022/04/03 01:23:34;;;;;;;1.53;1.30;;;-3.00;99.90;;;;;;5115720;28;20075;-72
2022/04/03 01:26:02;;;;;;;1.03;0.83;;;-2.90;99.90;;;;;;5115681;28;20079;-72
2022/04/03 01:28:29;;;;;;;2.03;1.33;;;-2.90;99.90;;;;;;5115520;28;20047;-72
2022/04/03 01:30:55;;;;;;;0.97;0.87;;;-2.90;99.90;;;;;;5074594;28;20052;-72
2022/04/03 01:33:22;;;;;;;1.27;1.10;;;-2.90;99.90;;;;;;5074975;28;20080;-72
2022/04/03 01:35:49;;;;;;;2.13;1.20;;;-2.90;99.90;;;;;;5074854;28;20416;-71
2022/04/03 01:38:15;;;;;;;1.13;1.13;;;-2.80;99.90;;;;;;5074437;28;20072;-72
2022/04/03 01:40:42;;;;;;;1.23;1.23;;;-2.80;99.90;;;;;;5074739;28;20079;-72
2022/04/03 01:43:11;;;;;;;0.90;0.87;;;-2.70;99.90;;;;;;5064875;28;20087;-71
2022/04/03 01:45:39;;;;;;;0.90;0.90;;;-2.70;99.90;;;;;;5070542;28;20479;-73
2022/04/03 01:48:08;;;;;;;3.90;1.37;;;-2.80;99.90;;;;;;5058300;28;20063;-72
2022/04/03 01:50:34;;;;;;;0.70;0.70;;;-2.70;99.90;;;;;;5071211;28;20044;-72
2022/04/03 01:53:01;;;;;;;3.07;1.53;;;-2.80;99.90;;;;;;5060922;28;20084;-71
2022/04/03 01:55:28;;;;;;;1.33;1.33;;;-2.70;99.90;;;;;;5073671;28;20072;-71
2022/04/03 01:57:54;;;;;;;1.27;1.17;;;-2.70;99.90;;;;;;5072324;28;20387;-71
2022/04/03 02:00:23;;;;;;;1.80;1.70;;;-2.70;99.90;;;;;;5073275;28;20098;-71
2022/04/03 02:02:50;;;;;;;1.27;1.20;;;-2.70;99.90;;;;;;5071737;28;20555;-72
2022/04/03 02:05:17;;;;;;;3.37;1.20;;;-2.70;99.90;;;;;;5063492;28;20052;-72
2022/04/03 02:07:43;;;;;;;3.40;1.37;;;-2.70;99.90;;;;;;5074295;28;20080;-71
2022/04/03 02:10:12;;;;;;;7.27;1.73;;;-2.70;99.90;;;;;;5057681;28;20087;-72
2022/04/03 02:12:39;;;;;;;2.83;2.30;;;-2.80;99.90;;;;;;5064832;28;20058;-71
2022/04/03 02:15:06;;;;;;;1.50;1.37;;;-2.70;99.90;;;;;;5074337;28;20146;-71
2022/04/03 02:17:34;;;;;;;1.93;1.73;;;-2.70;99.90;;;;;;5073594;28;20555;-72
2022/04/03 02:20:02;;;;;;;1.97;1.53;;;-2.70;99.90;;;;;;5074026;28;20079;-71
2022/04/03 02:22:28;;;;;;;1.90;1.70;;;-2.60;99.90;;;;;;5074016;28;20072;-71
2022/04/03 02:24:55;;;;;;;2.43;2.20;;;-2.60;99.90;;;;;;5073717;28;20083;-72
2022/04/03 02:27:22;;;;;;;2.03;1.60;;;-2.60;99.90;;;;;;5073753;28;20091;-71
2022/04/03 02:29:48;;;;;;;2.40;1.43;;;-2.40;99.90;;;;;;5094642;28;20051;-72
2022/04/03 02:32:16;;;;;;;1.60;1.50;;;-2.50;99.90;;;;;;5114353;28;20075;-72
2022/04/03 02:34:44;;;;;;;2.00;1.83;;;-2.40;99.90;;;;;;5114419;28;20135;-72
2022/04/03 02:37:11;;;;;;;5.37;2.90;;;-2.30;99.90;;;;;;5114025;28;20052;-72
2022/04/03 02:39:37;;;;;;;6.17;1.80;;;-2.30;99.90;;;;;;5114146;28;20082;-72
2022/04/03 02:42:05;;;;;;;1.13;1.07;;;-2.20;99.90;;;;;;5114018;28;20557;-71
2022/04/03 02:44:32;;;;;;;2.17;1.37;;;-2.10;99.90;;;;;;5114284;28;20047;-71
2022/04/03 02:46:58;;;;;;;1.90;1.80;;;-2.10;99.90;;;;;;5114119;28;20055;-72
2022/04/03 02:49:25;;;;;;;1.10;1.00;;;-2.00;99.90;;;;;;5114153;28;20083;-72
2022/04/03 02:51:53;;;;;;;3.13;1.80;;;-1.90;99.90;;;;;;5113678;28;20058;-72
2022/04/03 02:54:20;;;;;;;1.00;1.00;;;-1.80;99.90;;;;;;5113952;28;20059;-72
2022/04/03 02:56:46;;;;;;;1.50;1.37;;;-1.80;99.90;;;;;;5107571;28;20076;-71
2022/04/03 02:59:13;;;;;;;1.67;1.30;;;-1.70;99.90;;;;;;5113195;28;20067;-71
2022/04/03 03:01:41;;;;;;;11.70;4.73;;;-1.60;99.90;;;;;;5114013;28;20055;-72
2022/04/03 03:04:07;;;;;;;19.07;8.83;;;-1.50;99.90;;;;;;5100147;28;20059;-71
2022/04/03 03:06:34;;;;;;;2.23;1.70;;;-1.50;99.90;;;;;;5093400;28;20097;-71
2022/04/03 03:09:02;;;;;;;2.43;2.23;;;-1.50;99.90;;;;;;5094638;28;20409;-71
2022/04/03 03:11:28;;;;;;;3.20;2.93;;;-1.50;99.90;;;;;;5103916;28;20044;-71
2022/04/03 03:13:55;;;;;;;4.43;2.23;;;-1.40;99.90;;;;;;5093391;28;20135;-71
2022/04/03 03:16:21;;;;;;;1.20;1.20;;;-1.40;99.90;;;;;;5109858;28;20083;-72
2022/04/03 03:18:48;;;;;;;1.43;1.37;;;-1.30;99.90;;;;;;5114082;28;20082;-71
2022/04/03 03:21:15;;;;;;;1.80;1.70;;;-1.40;99.90;;;;;;5113840;28;20055;-72
2022/04/03 03:23:42;;;;;;;9.10;2.20;;;-1.30;99.90;;;;;;5113710;28;20101;-72
2022/04/03 03:26:10;;;;;;;2.73;2.20;;;-1.20;99.90;;;;;;5113470;28;20075;-72
2022/04/03 03:28:36;;;;;;;4.97;1.60;;;-1.20;99.90;;;;;;5115641;28;20075;-72
2022/04/03 03:31:03;;;;;;;7.43;4.10;;;-1.30;99.90;;;;;;5117766;28;20130;-71
2022/04/03 03:33:30;;;;;;;5.03;2.47;;;-1.30;99.90;;;;;;5117954;28;20051;-71
2022/04/03 03:35:56;;;;;;;2.33;1.63;;;-1.20;99.90;;;;;;5118083;28;20127;-72
2022/04/03 03:38:23;;;;;;;3.93;2.23;;;-1.10;99.90;;;;;;5117774;28;20079;-71
2022/04/03 03:40:50;;;;;;;1.87;1.43;;;-1.00;99.90;;;;;;5117922;28;20067;-72
2022/04/03 03:43:18;;;;;;;2.27;2.07;;;-1.00;99.90;;;;;;5117328;28;20050;-71
2022/04/03 03:45:44;;;;;;;2.63;1.97;;;-1.10;99.90;;;;;;5117672;28;20079;-71
2022/04/03 03:48:11;;;;;;;3.27;2.70;;;-1.20;99.90;;;;;;5117470;28;20070;-72
2022/04/03 03:50:38;;;;;;;3.00;2.70;;;-1.20;99.90;;;;;;5116633;28;20097;-72
2022/04/03 03:53:05;;;;;;;3.47;2.40;;;-1.20;99.90;;;;;;5117452;28;20499;-72
2022/04/03 03:55:31;;;;;;;3.87;1.87;;;-1.20;99.90;;;;;;5117613;28;20698;-71
2022/04/03 03:57:58;;;;;;;2.20;2.00;;;-1.20;99.90;;;;;;5117364;28;20054;-71
2022/04/03 04:00:26;;;;;;;2.37;2.17;;;-1.20;99.90;;;;;;5117455;28;20466;-72
2022/04/03 04:02:52;;;;;;;1.60;1.50;;;-1.20;99.90;;;;;;5117291;28;20048;-71
2022/04/03 04:05:19;;;;;;;1.70;1.60;;;-1.10;99.90;;;;;;5117161;28;20075;-71
2022/04/03 04:07:47;;;;;;;3.37;2.07;;;-1.10;99.90;;;;;;5117137;28;20079;-71
2022/04/03 04:10:16;;;;;;;2.00;1.67;;;-1.10;99.90;;;;;;5107758;28;20489;-72
2022/04/03 04:12:45;;;;;;;1.43;1.00;;;-1.10;99.90;;;;;;5098450;28;20148;-72
2022/04/03 04:15:13;;;;;;;1.47;1.33;;;-1.00;99.90;;;;;;5103104;28;20044;-72
2022/04/03 04:17:42;;;;;;;1.90;1.70;;;-1.00;99.90;;;;;;5101901;28;20508;-71
2022/04/03 04:20:12;;;;;;;2.93;0.80;;;-1.00;99.90;;;;;;5114126;28;20097;-71
2022/04/03 04:22:39;;;;;;;1.63;1.53;;;-1.00;99.90;;;;;;5116955;28;20048;-71
2022/04/03 04:25:06;;;;;;;3.57;1.93;;;-1.00;99.90;;;;;;5117036;28;20109;-71
2022/04/03 04:27:33;;;;;;;3.27;2.03;;;-0.90;99.90;;;;;;5116897;28;20093;-72
2022/04/03 04:30:00;;;;;;;1.73;1.60;;;-0.90;99.90;;;;;;5116477;28;20138;-71
2022/04/03 04:32:26;;;;;;;3.80;2.53;;;-0.80;99.90;;;;;;5116639;28;20090;-71
2022/04/03 04:34:54;;;;;;;3.60;2.43;;;-0.80;99.90;;;;;;5116757;28;20051;-72
2022/04/03 04:37:21;;;;;;;2.57;2.10;;;-0.80;99.90;;;;;;5116801;28;20094;-71
2022/04/03 04:39:47;;;;;;;5.47;3.17;;;-0.80;99.90;;;;;;5116381;28;20075;-72
2022/04/03 04:42:14;;;;;;;5.97;1.90;;;-0.70;99.90;;;;;;5116642;28;20075;-72
2022/04/03 04:44:41;;;;;;;3.73;2.30;;;-0.60;99.90;;;;;;5116614;28;20090;-72
2022/04/03 04:47:08;;;;;;;1.23;1.17;;;-0.60;99.90;;;;;;5115600;28;20131;-71
2022/04/03 04:49:35;;;;;;;1.60;1.50;;;-0.60;99.90;;;;;;5116492;28;20086;-72
2022/04/03 04:52:04;;;;;;;2.83;1.73;;;-0.60;99.90;;;;;;5116282;28;20074;-72
2022/04/03 04:54:31;;;;;;;1.70;1.40;;;-0.60;99.90;;;;;;5116291;28;20078;-71
2022/04/03 04:56:58;;;;;;;1.57;1.47;;;-0.60;99.90;;;;;;5098073;28;20080;-71
2022/04/03 04:59:24;;;;;;;1.77;1.63;;;-0.60;99.90;;;;;;5095859;28;20448;-71
2022/04/03 05:01:51;;;;;;;1.83;1.77;;;-0.60;99.90;;;;;;5095849;28;20467;-72
2022/04/03 05:04:17;;;;;;;2.50;2.30;;;-0.60;99.90;;;;;;5095769;28;20136;-72
2022/04/03 05:06:44;;;;;;;3.10;2.10;;;-0.60;99.90;;;;;;5095555;28;20080;-71
2022/04/03 05:09:13;;;;;;;1.67;1.57;;;-0.60;99.90;;;;;;5099869;28;20501;-71
2022/04/03 05:11:41;;;;;;;1.90;1.80;;;-0.50;99.90;;;;;;5115926;28;20468;-71
2022/04/03 05:14:08;;;;;;;2.23;1.87;;;-0.60;99.90;;;;;;5115209;28;20048;-72
2022/04/03 05:16:35;;;;;;;5.60;1.70;;;-0.60;99.90;;;;;;5098174;28;20492;-73
2022/04/03 05:19:01;;;;;;;2.50;2.30;;;-0.60;99.90;;;;;;5110383;28;20044;-72
2022/04/03 05:21:29;;;;;;;1.20;1.00;;;-0.50;99.90;;;;;;5109777;28;20048;-72
2022/04/03 05:23:56;;;;;;;1.93;1.77;;;-0.40;99.90;;;;;;5101486;28;20066;-72
2022/04/03 05:26:24;;;;;;;2.83;2.20;;;-0.40;99.90;;;;;;5095920;28;20086;-73
2022/04/03 05:28:51;;;;;;;1.67;1.60;;;-0.30;99.90;;;;;;5101834;28;20078;-72
2022/04/03 05:31:18;;;;;;;1.10;1.10;;;-0.20;99.90;;;;;;5096167;28;20052;-72
2022/04/03 05:33:45;;;;;;;3.30;2.33;;;-0.10;99.90;;;;;;5095178;28;20048;-72
2022/04/03 05:36:12;;;;;;;3.80;2.50;;;0.00;99.90;;;;;;5095202;28;20070;-72
2022/04/03 05:38:38;;;;;;;2.97;1.63;;;0.00;99.90;;;;;;5107184;28;20082;-72
2022/04/03 05:41:05;;;;;;;2.07;1.97;;;0.00;99.90;;;;;;5094759;28;20492;-72
2022/04/03 05:43:33;;;;;;;2.70;2.27;;;0.00;99.90;;;;;;5102642;28;20071;-72
2022/04/03 05:45:59;;;;;;;1.60;1.50;;;0.10;99.90;;;;;;5110675;28;20100;-72
2022/04/03 05:48:26;;;;;;;4.20;2.40;;;0.10;99.90;;;;;;5094829;28;20048;-72
2022/04/03 05:50:52;;;;;;;2.93;2.73;;;0.30;99.90;;;;;;5113422;28;20043;-72
2022/04/03 05:53:20;;;;;;;1.67;1.27;;;0.30;99.90;;;;;;5114802;28;20481;-72
2022/04/03 05:55:47;;;;;;;2.37;2.27;;;0.40;99.90;;;;;;5114928;28;20085;-72
2022/04/03 05:58:14;;;;;;;4.47;2.23;;;0.50;99.90;;;;;;5114774;28;20051;-71
2022/04/03 06:00:42;;;;;;;2.43;1.67;;;0.60;99.90;;;;;;5115096;28;20079;-72
2022/04/03 06:03:08;;;;;;;2.27;1.50;;;0.80;99.90;;;;;;5114941;28;20075;-72
2022/04/03 06:05:35;;;;;;;2.50;2.13;;;0.90;99.90;;;;;;5114766;28;20082;-72
2022/04/03 06:08:02;;;;;;;1.97;1.77;;;1.00;99.90;;;;;;5115002;28;20131;-72
2022/04/03 06:10:29;;;;;;;6.50;4.37;;;1.00;99.90;;;;;;5114800;28;20044;-72
2022/04/03 06:12:58;;;;;;;20.27;10.17;;;1.10;99.90;;;;;;5114762;28;20048;-72
2022/04/03 06:15:25;;;;;;;5.70;4.27;;;1.20;99.90;;;;;;5114470;28;20155;-72
2022/04/03 06:17:54;;;;;;;2.80;2.27;;;1.30;99.90;;;;;;5114060;28;20047;-72
2022/04/03 06:20:21;;;;;;;3.77;2.17;;;1.40;99.90;;;;;;5114577;28;20079;-71
2022/04/03 06:22:48;;;;;;;2.07;1.87;;;1.50;99.90;;;;;;5114737;28;20051;-72
2022/04/03 06:25:15;;;;;;;2.87;2.43;;;1.70;99.90;;;;;;5114537;28;20484;-72
2022/04/03 06:27:42;;;;;;;9.53;3.30;;;1.80;99.90;;;;;;5114474;28;20122;-72
2022/04/03 06:30:10;;;;;;;3.67;2.40;;;1.90;99.90;;;;;;5113931;28;20562;-72
2022/04/03 06:32:36;;;;;;;3.23;2.50;;;2.00;99.90;;;;;;5113915;28;20139;-71
2022/04/03 06:35:05;;;;;;;3.77;1.87;;;2.10;99.90;;;;;;5114332;28;20466;-72
2022/04/03 06:37:31;;;;;;;4.67;2.10;;;2.20;99.90;;;;;;5114494;28;20183;-73
2022/04/03 06:39:58;;;;;;;1.83;1.67;;;2.40;99.90;;;;;;5113865;28;20074;-73
2022/04/03 06:42:25;;;;;;;2.90;2.17;;;2.40;99.90;;;;;;5114088;28;20047;-74
2022/04/03 06:44:52;;;;;;;4.67;3.00;;;2.50;99.90;;;;;;5118483;27;20097;-72
2022/04/03 06:47:18;;;;;;;2.23;1.97;;;2.70;99.90;;;;;;5114205;27;20048;-75
2022/04/03 06:49:45;;;;;;;4.00;1.80;;;2.70;99.90;;;;;;5099754;28;20075;-72
2022/04/03 06:52:13;;;;;;;2.57;2.10;;;2.80;99.90;;;;;;5105415;28;20137;-72
2022/04/03 06:54:39;;;;;;;2.47;1.80;;;2.90;99.90;;;;;;5094526;28;20101;-71
2022/04/03 06:57:06;;;;;;;7.97;2.43;;;2.90;99.90;;;;;;5093696;28;20087;-71
2022/04/03 07:02:55;;;;;;;1.80;1.67;;;3.00;99.60;;;;;;5100881;28;20070;-73
2022/04/03 07:05:22;;;;;;;1.70;1.30;;;3.20;99.50;;;;;;5098993;28;20086;-74
2022/04/03 07:07:52;;;;;;;2.00;1.70;;;3.50;98.80;;;;;;5104133;28;20098;-75
2022/04/03 07:10:18;;;;;;;1.47;1.33;;;4.00;98.40;;;;;;5100712;28;20075;-76
2022/04/03 07:12:45;;;;;;;1.97;1.63;;;4.90;96.70;;;;;;5101836;28;20110;-76
2022/04/03 07:15:13;;;;;;;2.63;1.83;;;5.50;93.70;;;;;;5097776;28;20059;-75
2022/04/03 07:17:39;;;;;;;2.90;1.83;;;5.50;91.50;;;;;;5104513;28;20055;-74
2022/04/03 07:20:07;;;;;;;3.83;2.33;;;5.60;90.80;;;;;;5113397;28;20043;-74
2022/04/03 07:22:34;;;;;;;1.20;1.13;;;5.70;90.40;;;;;;5094907;28;20133;-75
2022/04/03 07:25:02;;;;;;;4.17;1.43;;;6.00;89.90;;;;;;5094181;28;20039;-75
2022/04/03 07:27:29;;;;;;;1.77;1.63;;;6.70;86.30;;;;;;5093049;28;20055;-74
2022/04/03 07:29:55;;;;;;;1.93;1.80;;;7.50;83.70;;;;;;5093614;28;20044;-74
2022/04/03 07:32:23;;;;;;;2.38;1.90;;;8.10;79.10;;;;;;5106084;28;20098;-74
2022/04/03 07:34:49;;;;;;;4.18;2.40;;;8.70;75.50;;;;;;5112475;28;20048;-73
2022/04/03 07:37:16;;;;;;;6.38;3.53;;;8.90;71.70;;;;;;5113834;28;20058;-73
2022/04/03 07:39:43;;;;;;;4.63;2.70;;;9.20;72.30;;;;;;5110840;28;20090;-74
2022/04/03 07:42:11;;;;;;;5.07;1.70;;;9.70;70.00;;;;;;5103489;28;20040;-72
2022/04/03 07:44:37;;;;;;;1.55;1.35;;;9.90;66.70;;;;;;5093097;28;20135;-73
2022/04/03 07:47:06;;;;;;;3.05;2.00;;;10.30;65.70;;;;;;5108101;28;20112;-73
2022/04/03 07:49:33;;;;;;;2.05;1.40;;;10.80;63.80;;;;;;5113291;28;20101;-73
2022/04/03 07:51:59;;;;;;;1.90;1.58;;;10.90;61.50;;;;;;5109910;28;20101;-74
2022/04/03 07:54:26;;;;;;;2.35;1.20;;;10.50;59.00;;;;;;5092369;28;20044;-73
2022/04/03 07:56:58;;;;;;;1.50;1.38;;;10.70;59.00;;;;;;5093300;28;20044;-73
2022/04/03 07:59:25;;;;;;;1.45;0.95;;;10.90;57.30;;;;;;5092468;28;20509;-74
2022/04/03 08:01:52;;;;;;;1.05;0.95;;;11.30;56.90;;;;;;5093575;28;20075;-73
2022/04/03 08:04:18;;;;;;;1.40;1.30;;;11.70;56.40;;;;;;5100515;28;20123;-73
2022/04/03 08:06:45;;;;;;;3.30;1.85;;;11.70;55.70;;;;;;5105570;28;20083;-73
2022/04/03 08:09:12;;;;;;;2.88;2.08;;;12.20;54.70;;;;;;5104802;28;20040;-73
2022/04/03 08:11:41;;;;;;;1.45;1.23;;;12.50;53.60;;;;;;5111141;28;20048;-73
2022/04/03 08:14:07;;;;;;;1.40;1.30;;;12.80;52.20;;;;;;5112683;28;20051;-73
2022/04/03 08:16:36;;;;;;;1.90;1.45;;;12.90;52.00;;;;;;5100424;28;20520;-76
2022/04/03 08:19:03;;;;;;;3.08;1.73;;;13.50;51.10;;;;;;5097291;28;20044;-70
2022/04/03 08:21:30;;;;;;;1.30;1.20;;;13.60;49.80;;;;;;5096193;28;20084;-70
2022/04/03 08:23:56;;;;;;;2.80;1.60;;;13.50;49.80;;;;;;5114927;28;20074;-72
2022/04/03 08:26:25;;;;;;;3.10;1.50;;;13.20;49.30;;;;;;5115091;28;20048;-73
2022/04/03 08:28:52;;;;;;;1.88;1.50;;;12.00;51.20;;;;;;5099016;28;20055;-72
2022/04/03 08:31:20;;;;;;;1.50;1.40;;;11.40;52.50;;;;;;5100333;28;20447;-69
2022/04/03 08:33:48;;;;;;;2.92;1.50;;;10.90;54.30;;;;;;5110912;28;20533;-72
2022/04/03 08:36:15;;;;;;;10.80;5.25;;;10.90;56.20;;;;;;5106513;28;20047;-72
2022/04/03 08:38:42;;;;;;;1.83;1.73;;;10.70;55.40;;;;;;5114847;28;20082;-73
2022/04/03 08:41:08;;;;;;;1.95;1.75;;;10.50;55.60;;;;;;5095892;28;20493;-73
2022/04/03 08:43:35;;;;;;;2.00;1.80;;;10.10;55.00;;;;;;5095819;28;20083;-71
2022/04/03 08:46:06;;;;;;;3.63;1.50;;;9.40;56.70;;;;;;5094788;28;20087;-71
2022/04/03 08:48:33;;;;;;;2.08;1.13;;;9.20;57.40;;;;;;5095203;28;20121;-71
2022/04/03 08:51:02;;;;;;;1.75;1.38;;;8.70;57.90;;;;;;5095479;28;20135;-71
2022/04/03 08:53:31;;;;;;;4.22;2.40;;;8.50;58.50;;;;;;5109323;28;20490;-72
2022/04/03 08:55:59;;;;;;;2.60;1.50;;;8.50;59.30;;;;;;5115166;28;20086;-71
2022/04/03 08:58:26;;;;;;;1.45;1.30;;;8.80;58.70;;;;;;5115167;28;20488;-72
2022/04/03 09:00:53;;;;;;;2.47;1.65;;;9.10;58.40;;;;;;5105195;28;20502;-72
2022/04/03 09:03:19;;;;;;;1.08;0.98;;;9.30;58.00;;;;;;5094887;28;20126;-72
2022/04/03 09:05:46;;;;;;;0.98;0.88;;;9.60;57.30;;;;;;5095017;28;20079;-71
2022/04/03 09:08:14;;;;;;;2.63;1.33;;;10.00;57.30;;;;;;5094704;28;20054;-72
2022/04/03 09:10:41;;;;;;;3.50;1.33;;;10.40;56.90;;;;;;5094649;28;20052;-73
2022/04/03 09:13:11;;;;;;;2.33;1.65;;;10.70;56.40;;;;;;5094331;28;20044;-71
2022/04/03 09:15:38;;;;;;;2.53;1.30;;;10.80;55.70;;;;;;5094600;28;20122;-73
2022/04/03 09:18:06;;;;;;;1.63;1.13;;;10.60;56.30;;;;;;5094621;28;20078;-72
2022/04/03 09:20:34;;;;;;;1.75;1.33;;;10.30;56.40;;;;;;5094576;28;20056;-72
2022/04/03 09:23:02;;;;;;;1.77;1.45;;;10.40;56.70;;;;;;5094520;28;20172;-72
2022/04/03 09:25:32;;;;;;;4.03;2.60;;;10.20;56.30;;;;;;5101842;28;20036;-71
2022/04/03 09:28:00;;;;;;;2.50;2.28;;;10.60;56.60;;;;;;5114877;28;20100;-72
2022/04/03 09:30:30;;;;;;;2.88;1.65;;;11.10;55.80;;;;;;5114250;28;20075;-72
2022/04/03 09:32:58;;;;;;;2.30;1.35;;;11.50;55.30;;;;;;5115337;28;20075;-72
2022/04/03 09:35:27;;;;;;;2.22;1.20;;;12.20;53.70;;;;;;5115025;28;20504;-71
2022/04/03 09:38:14;;;;;;;2.00;1.50;;;12.20;51.60;;;;;;5115404;28;20047;-71
2022/04/03 09:40:44;;;;;;;1.38;1.27;;;11.10;51.10;;;;;;5115133;28;20086;-71
2022/04/03 09:43:16;;;;;;;6.18;3.85;;;11.40;52.80;;;;;;5115118;28;20067;-72
2022/04/03 09:45:50;;;;;;;3.15;2.60;;;11.40;51.60;;;;;;5115262;28;20158;-71
2022/04/03 09:48:22;;;;;;;4.85;1.80;;;11.40;51.40;;;;;;5115372;28;20104;-72
2022/04/03 09:51:00;;;;;;;3.45;1.63;;;10.90;51.90;;;;;;5115089;28;20047;-72
2022/04/03 09:53:27;;;;;;;1.65;1.55;;;10.10;53.00;;;;;;5104292;28;20052;-73
2022/04/03 09:55:55;;;;;;;2.03;1.52;;;9.50;55.00;;;;;;5094606;28;20055;-72
2022/04/03 09:58:23;;;;;;;2.92;1.80;;;9.10;56.10;;;;;;5094544;28;20071;-73
2022/04/03 10:00:50;;;;;;;2.13;1.55;;;8.70;56.20;;;;;;5094580;28;20135;-72
2022/04/03 10:03:16;;;;;;;1.88;1.52;;;8.20;57.60;;;;;;5094164;28;20500;-72
2022/04/03 10:05:43;;;;;;;1.50;1.40;;;8.10;58.60;;;;;;5094534;28;20080;-73
2022/04/03 10:08:12;;;;;;;1.00;1.00;;;8.00;58.60;;;;;;5094655;28;20040;-72
2022/04/03 10:10:39;;;;;;;1.43;1.33;;;7.70;58.40;;;;;;5094360;28;20048;-73
2022/04/03 10:13:10;;;;;;;2.33;1.80;;;7.50;58.60;;;;;;5094466;28;20047;-72
2022/04/03 10:15:36;;;;;;;2.03;1.77;;;7.80;58.40;;;;;;5094158;28;20405;-71
2022/04/03 10:18:05;;;;;;;1.45;1.33;;;8.30;57.20;;;;;;5094424;28;20052;-71
2022/04/03 10:20:31;;;;;;;2.47;1.47;;;9.00;54.90;;;;;;5098608;28;20138;-72
2022/04/03 10:23:04;;;;;;;2.53;1.70;;;9.20;53.40;;;;;;5114666;28;20078;-71
2022/04/03 10:25:37;;;;;;;3.53;1.73;;;9.30;53.10;;;;;;5114553;28;20073;-72
2022/04/03 10:28:05;;;;;;;1.90;1.73;;;8.90;53.10;;;;;;5114319;28;20048;-71
2022/04/03 10:30:44;;;;;;;1.58;1.48;;;8.70;53.60;;;;;;5114179;28;20055;-71
2022/04/03 10:33:19;;;;;;;1.60;1.30;;;8.30;53.70;;;;;;5112656;28;20183;-71
2022/04/03 10:35:47;;;;;;;2.80;1.25;;;8.90;53.90;;;;;;5094086;28;20048;-72
2022/04/03 10:38:14;;;;;;;1.27;1.17;;;8.80;53.90;;;;;;5093740;28;20109;-71
2022/04/03 10:40:41;;;;;;;1.58;1.30;;;8.60;53.40;;;;;;5093901;28;20075;-71
2022/04/03 10:43:08;;;;;;;2.50;1.70;;;9.40;53.50;;;;;;5093546;28;20440;-72
2022/04/03 10:45:37;;;;;;;3.10;2.60;;;10.50;52.10;;;;;;5093850;28;20072;-72
2022/04/03 10:48:27;;;;;;;1.73;1.52;;;13.10;50.90;;;;;;5093813;28;20051;-72
2022/04/03 10:50:58;;;;;;;2.03;1.55;;;13.10;47.60;;;;;;5093615;28;20107;-72
2022/04/03 10:53:26;;;;;;;;;;;13.10;46.40;;;;;;5094192;28;20048;-71
2022/04/03 10:55:55;;;;;;;1.65;1.30;;;12.40;46.70;;;;;;5093742;28;19919;-71
2022/04/03 10:58:22;;;;;;;1.48;1.38;;;11.60;46.90;;;;;;5093555;28;20047;-71
2022/04/03 11:00:51;;;;;;;2.30;1.95;;;10.90;47.60;;;;;;5093498;28;20047;-71
2022/04/03 11:03:33;;;;;;;1.92;1.52;;;10.90;49.30;;;;;;5113950;28;20044;-72
2022/04/03 11:06:22;;;;;;;1.67;1.58;;;13.50;47.50;;;;;;5113776;28;20497;-71
2022/04/03 11:08:58;;;;;;;2.42;1.83;;;12.30;46.40;;;;;;5113868;28;20081;-71
2022/04/03 11:11:34;;;;;;;3.08;1.92;;;11.10;47.00;;;;;;5113809;28;20051;-72
2022/04/03 11:14:01;;;;;;;5.15;3.45;;;10.30;48.60;;;;;;5113646;28;20075;-71
2022/04/03 11:16:29;;;;;;;3.85;2.05;;;9.50;49.70;;;;;;5113616;28;20500;-71
2022/04/03 11:19:04;;;;;;;1.70;1.60;;;9.20;51.30;;;;;;5113558;28;20489;-71
2022/04/03 11:21:34;;;;;;;1.60;1.50;;;8.90;52.00;;;;;;5113457;28;20050;-72
2022/04/03 11:24:03;;;;;;;1.90;1.80;;;9.10;51.90;;;;;;5113484;28;20477;-72
2022/04/03 11:26:31;;;;;;;2.10;1.85;;;9.80;51.70;;;;;;5113641;28;20048;-72
2022/04/03 11:28:58;;;;;;;1.45;1.38;;;10.20;51.20;;;;;;5112848;28;20168;-72
2022/04/03 11:31:24;;;;;;;2.35;1.42;;;10.10;49.40;;;;;;5113346;28;20536;-71
2022/04/03 11:33:53;;;;;;;2.17;1.90;;;10.20;49.60;;;;;;5103887;28;20127;-71
2022/04/03 11:36:24;;;;;;;1.98;1.77;;;10.20;49.40;;;;;;5093307;28;20044;-72
2022/04/03 11:38:52;;;;;;;2.33;1.80;;;11.50;49.00;;;;;;5093325;28;20159;-72
2022/04/03 11:41:21;;;;;;;2.22;1.90;;;11.70;47.20;;;;;;5093317;28;20048;-71
2022/04/03 11:43:57;;;;;;;1.98;1.27;;;12.60;44.20;;;;;;5093312;28;20048;-71
2022/04/03 11:46:23;;;;;;;1.60;1.50;;;11.60;45.20;;;;;;5093037;28;20569;-71
2022/04/03 11:48:51;;;;;;;1.58;1.33;;;10.70;45.40;;;;;;5094085;28;20135;-71
2022/04/03 11:51:20;;;;;;;1.73;1.60;;;9.70;47.20;;;;;;5096945;28;20069;-71
2022/04/03 11:53:49;;;;;;;3.45;1.90;;;10.20;48.50;;;;;;5096815;28;20048;-72
2022/04/03 11:56:18;;;;;;;3.78;1.52;;;10.20;48.00;;;;;;5096851;28;20237;-72
2022/04/03 11:58:48;;;;;;;2.17;1.67;;;13.00;47.30;;;;;;5096897;28;20102;-72
2022/04/03 12:01:23;;;;;;;1.50;1.38;;;13.10;44.50;;;;;;5102986;28;20044;-71
2022/04/03 12:03:59;;;;;;;1.65;1.55;;;14.30;43.00;;;;;;5116918;28;20580;-71
2022/04/03 12:06:26;;;;;;;2.22;1.83;;;15.40;41.90;;;;;;5117236;28;20050;-71
2022/04/03 12:08:53;;;;;;;2.47;2.00;;;14.60;42.00;;;;;;5116844;28;20486;-71
2022/04/03 12:11:24;;;;;;;1.75;1.65;;;13.70;42.40;;;;;;5117187;28;20086;-71
2022/04/03 12:13:51;;;;;;;2.20;2.00;;;13.50;42.60;;;;;;5116733;28;20481;-71
2022/04/03 12:16:20;;;;;;;2.20;1.65;;;13.00;42.60;;;;;;5116982;28;20338;-71
2022/04/03 12:18:59;;;;;;;1.77;1.67;;;12.50;44.10;;;;;;5116897;28;20580;-71
2022/04/03 12:21:42;;;;;;;2.30;1.75;;;12.20;44.00;;;;;;5116948;28;20451;-71
2022/04/03 12:24:11;;;;;;;2.38;1.58;;;11.70;43.40;;;;;;5116773;28;20068;-72
2022/04/03 12:26:39;;;;;;;2.22;1.92;;;10.50;45.80;;;;;;5116740;28;20122;-71
2022/04/03 12:29:07;;;;;;;3.10;2.30;;;10.50;47.90;;;;;;5108717;28;20127;-70
2022/04/03 12:31:35;;;;;;;4.07;1.63;;;10.30;47.20;;;;;;5096056;28;20051;-72
2022/04/03 12:34:11;;;;;;;2.33;2.10;;;9.30;48.00;;;;;;5095934;28;20504;-72
2022/04/03 12:36:43;;;;;;;1.88;1.73;;;9.30;49.50;;;;;;5096254;28;20048;-71
2022/04/03 12:39:34;;;;;;;1.75;1.65;;;9.60;49.50;;;;;;5096113;28;20397;-71
2022/04/03 12:42:17;;;;;;;3.00;1.58;;;11.40;49.30;;;;;;5096244;28;20102;-72
2022/04/03 12:44:51;;;;;;;5.57;2.58;;;12.00;47.40;;;;;;5096146;28;20079;-72
2022/04/03 12:47:19;;;;;;;2.05;1.88;;;11.00;45.90;;;;;;5096066;28;20075;-72
2022/04/03 12:49:49;;;;;;;1.63;1.52;;;11.10;48.30;;;;;;5095977;28;20395;-71
2022/04/03 12:52:20;;;;;;;4.32;2.30;;;10.40;47.50;;;;;;5095638;28;20549;-72
2022/04/03 12:54:47;;;;;;;4.43;2.65;;;10.50;48.90;;;;;;5095825;28;20048;-71
2022/04/03 13:00:15;;;;;;;2.10;2.00;;;10.40;48.50;;;;;;5115644;28;20057;-71